Time;durP1;ratioP1;P1;durP2;ratioP2;P2;SDS_P1;SDS_P2;PMS_P1;PMS_P2;Temp;Humidity;BMP_temperature;BMP_pressure;BME280_temperature;BME280_humidity;BME280_pressure;Samples;Min_cycle;Max_cycle;Signal;HPM_P1;HPM_P2
2022/04/01 00:00:01;;;;;;;29.67;6.03;;;;;;;16.83;nan;-24286.09;5026917;28;20199;-62
2022/04/01 00:02:27;;;;;;;28.00;6.45;;;;;;;16.76;nan;-24284.28;5039268;28;20662;-64
2022/04/01 00:04:53;;;;;;;29.08;7.20;;;;;;;16.64;nan;-24280.78;5035229;28;20182;-63
2022/04/01 00:07:18;;;;;;;21.25;6.45;;;;;;;16.63;nan;-24280.66;5040862;28;20617;-64
2022/04/01 00:09:43;;;;;;;31.50;6.47;;;;;;;17.09;nan;-24293.22;5035492;28;20544;-63
2022/04/01 00:12:10;;;;;;;25.92;6.93;;;;;;;17.08;nan;-24292.94;5036199;28;20191;-62
2022/04/01 00:14:36;;;;;;;36.15;7.53;;;;;;;17.16;nan;-24295.31;5019602;28;20179;-63
2022/04/01 00:17:02;;;;;;;31.60;7.60;;;;;;;16.60;nan;-24279.81;5039736;28;20191;-62
2022/04/01 00:19:27;;;;;;;24.60;6.13;;;;;;;16.50;nan;-24277.00;5035001;28;20175;-65
2022/04/01 00:21:59;;;;;;;31.52;7.63;;;;;;;16.15;nan;-24267.22;5037064;28;20202;-63
2022/04/01 00:24:27;;;;;;;24.88;7.13;;;;;;;16.39;nan;-24273.94;5040614;28;20215;-62
2022/04/01 00:26:53;;;;;;;26.92;6.72;;;;;;;16.16;nan;-24267.66;5039456;28;20214;-62
2022/04/01 00:29:20;;;;;;;38.25;8.02;;;;;;;16.33;nan;-24272.41;5036267;28;20586;-62
2022/04/01 00:31:48;;;;;;;26.92;7.63;;;;;;;16.04;nan;-24264.28;5034280;28;20596;-63
2022/04/01 00:34:17;;;;;;;29.83;7.40;;;;;;;15.63;nan;-24252.94;5037739;28;20186;-65
2022/04/01 00:36:50;;;;;;;22.63;7.30;;;;;;;15.29;nan;-24243.44;5034362;28;20645;-62
2022/04/01 00:39:18;;;;;;;30.48;7.00;;;;;;;14.94;nan;-24233.75;5037322;28;20179;-63
2022/04/01 00:41:45;;;;;;;29.80;7.85;;;;;;;15.21;nan;-24241.19;5037925;28;20607;-63
2022/04/01 00:44:15;;;;;;;29.38;8.07;;;;;;;15.27;nan;-24242.88;5027281;28;20196;-63
2022/04/01 00:46:49;;;;;;;27.85;7.47;;;;;;;15.27;nan;-24242.88;5033401;28;20220;-61
2022/04/01 00:49:16;;;;;;;34.92;7.68;;;;;;;15.33;nan;-24244.69;5039231;28;20170;-62
2022/04/01 00:51:43;;;;;;;25.23;7.25;;;;;;;15.16;nan;-24239.94;5041557;28;20201;-61
2022/04/01 00:54:09;;;;;;;23.88;7.15;;;;;;;14.90;nan;-24232.63;5038192;28;20634;-64
2022/04/01 00:56:35;;;;;;;27.27;6.97;;;;;;;15.33;nan;-24244.69;5036958;28;20178;-63
2022/04/01 00:59:02;;;;;;;26.63;7.43;;;;;;;15.43;nan;-24247.34;5037509;28;20183;-64
2022/04/01 01:01:30;;;;;;;27.85;7.63;;;;;;;15.26;nan;-24242.59;5039685;28;20179;-64
2022/04/01 01:03:57;;;;;;;28.52;7.05;;;;;;;15.07;nan;-24237.28;5040916;28;20195;-62
2022/04/01 01:06:23;;;;;;;23.65;7.22;;;;;;;14.91;nan;-24233.06;5040543;28;20700;-61
2022/04/01 01:08:48;;;;;;;31.13;6.93;;;;;;;14.64;nan;-24225.34;5026254;28;20214;-65
2022/04/01 01:11:14;;;;;;;29.73;7.35;;;;;;;14.88;nan;-24232.22;5036067;28;20603;-64
2022/04/01 01:13:40;;;;;;;23.90;7.32;;;;;;;14.67;nan;-24226.34;5035794;28;20178;-62
2022/04/01 01:16:07;;;;;;;32.70;7.65;;;;;;;14.87;nan;-24231.94;5042396;28;20178;-62
2022/04/01 01:18:36;;;;;;;26.25;6.10;;;;;;;15.11;nan;-24238.53;5037854;28;20178;-62
2022/04/01 01:21:01;;;;;;;23.83;6.72;;;;;;;15.19;nan;-24240.63;5035782;28;20194;-64
2022/04/01 01:23:30;;;;;;;30.45;7.00;;;;;;;15.22;nan;-24241.59;5037137;28;20207;-62
2022/04/01 01:25:55;;;;;;;29.67;7.10;;;;;;;15.46;nan;-24248.34;5040797;28;20639;-63
2022/04/01 01:28:23;;;;;;;23.30;5.80;;;;;;;15.18;nan;-24240.50;5039675;28;20182;-62
2022/04/01 01:30:49;;;;;;;27.80;6.70;;;;;;;15.63;nan;-24252.94;5037238;28;20216;-63
2022/04/01 01:33:14;;;;;;;22.40;6.35;;;;;;;15.55;nan;-24250.72;5034729;28;20239;-64
2022/04/01 01:35:41;;;;;;;21.52;5.95;;;;;;;15.11;nan;-24238.38;5035490;28;20192;-63
2022/04/01 01:38:08;;;;;;;22.08;6.72;;;;;;;15.38;nan;-24246.09;5041423;28;20654;-63
2022/04/01 01:40:34;;;;;;;22.58;6.32;;;;;;;15.38;nan;-24246.09;5041079;28;20313;-63
2022/04/01 01:42:59;;;;;;;23.73;6.43;;;;;;;15.42;nan;-24247.06;5038446;28;20758;-63
2022/04/01 01:45:29;;;;;;;23.33;6.50;;;;;;;14.65;nan;-24225.78;5017219;28;20591;-64
2022/04/01 01:47:55;;;;;;;22.17;5.80;;;;;;;14.72;nan;-24227.75;5039198;28;20179;-62
2022/04/01 01:55:48;;;;;;;32.03;6.72;;;;;;;15.34;nan;-24244.97;5035321;28;20234;-64
2022/04/01 01:58:15;;;;;;;24.50;6.55;;;;;;;15.31;nan;-24244.00;5040677;28;20625;-63
2022/04/01 02:00:42;;;;;;;24.83;5.95;;;;;;;15.39;nan;-24246.22;5017736;28;20274;-65
2022/04/01 02:03:09;;;;;;;27.20;5.65;;;;;;;15.85;nan;-24259.13;5033898;28;20231;-62
2022/04/01 02:05:35;;;;;;;28.77;6.07;;;;;;;16.10;nan;-24265.97;5034234;28;21329;-61
2022/04/01 02:08:01;;;;;;;25.35;6.63;;;;;;;15.98;nan;-24262.59;5031509;28;20237;-63
2022/04/01 02:10:26;;;;;;;21.63;5.85;;;;;;;15.16;nan;-24239.78;5031090;28;20167;-65
2022/04/01 02:12:52;;;;;;;24.52;6.72;;;;;;;15.18;nan;-24240.50;5031464;28;20293;-65
2022/04/01 02:15:18;;;;;;;30.35;7.05;;;;;;;15.30;nan;-24243.72;5031113;28;20237;-63
2022/04/01 02:17:44;;;;;;;24.73;6.53;;;;;;;15.76;nan;-24256.47;5031056;28;20168;-64
2022/04/01 02:20:09;;;;;;;26.88;6.53;;;;;;;15.46;nan;-24248.19;5033820;28;20276;-62
2022/04/01 02:22:38;;;;;;;27.60;7.03;;;;;;;15.19;nan;-24240.63;5034783;28;20258;-64
2022/04/01 02:25:07;;;;;;;32.53;6.97;;;;;;;15.82;nan;-24258.13;5034507;28;20179;-64
2022/04/01 02:27:36;;;;;;;27.10;6.55;;;;;;;15.55;nan;-24250.72;5034348;28;20183;-63
2022/04/01 02:30:10;;;;;;;29.67;6.57;;;;;;;15.59;nan;-24251.69;5034573;28;20223;-63
2022/04/01 02:32:37;;;;;;;28.88;6.30;;;;;;;15.55;nan;-24250.72;5033852;28;20558;-63
2022/04/01 02:35:04;;;;;;;31.50;6.60;;;;;;;15.48;nan;-24248.91;5034433;28;20176;-59
2022/04/01 02:37:29;;;;;;;25.70;6.47;;;;;;;15.09;nan;-24237.97;5034585;28;20623;-62
2022/04/01 02:39:55;;;;;;;24.55;6.40;;;;;;;15.18;nan;-24240.50;5034591;28;20178;-61
2022/04/01 02:42:20;;;;;;;26.25;6.65;;;;;;;15.33;nan;-24244.56;5034280;28;20164;-63
2022/04/01 02:44:46;;;;;;;26.77;6.35;;;;;;;14.59;nan;-24224.09;5034600;28;20202;-65
2022/04/01 02:47:12;;;;;;;29.70;6.68;;;;;;;15.06;nan;-24237.00;5034330;28;20183;-63
2022/04/01 02:49:38;;;;;;;21.88;6.13;;;;;;;15.41;nan;-24246.78;5034379;28;20179;-64
2022/04/01 02:52:05;;;;;;;25.35;6.78;;;;;;;15.00;nan;-24235.59;5041359;28;20182;-66
2022/04/01 02:54:33;;;;;;;24.20;6.15;;;;;;;14.84;nan;-24231.09;5041669;28;20184;-60
2022/04/01 02:56:59;;;;;;;33.53;6.82;;;;;;;15.06;nan;-24237.00;5038246;28;20271;-61
2022/04/01 02:59:25;;;;;;;25.02;6.13;;;;;;;14.82;nan;-24230.41;5036530;28;20580;-64
2022/04/01 03:01:51;;;;;;;24.02;6.95;;;;;;;14.29;nan;-24215.81;5043225;28;20194;-61
2022/04/01 03:04:17;;;;;;;30.05;6.43;;;;;;;14.14;nan;-24211.75;5040534;28;20207;-60
2022/04/01 03:06:43;;;;;;;28.17;6.25;;;;;;;14.49;nan;-24221.44;5041462;28;20309;-64
2022/04/01 03:09:10;;;;;;;20.38;5.75;;;;;;;14.49;nan;-24221.28;5043250;28;20648;-63
2022/04/01 03:11:37;;;;;;;26.88;6.88;;;;;;;14.32;nan;-24216.66;5039299;28;20175;-61
2022/04/01 03:14:08;;;;;;;35.85;7.05;;;;;;;14.27;nan;-24215.13;5042367;28;20557;-63
2022/04/01 03:16:34;;;;;;;33.00;7.53;;;;;;;13.69;nan;-24199.13;5042054;28;20187;-61
2022/04/01 03:19:00;;;;;;;35.38;7.40;;;;;;;14.03;nan;-24208.66;5040264;28;20256;-60
2022/04/01 03:21:27;;;;;;;28.05;7.47;;;;;;;13.58;nan;-24196.16;5042581;28;20202;-67
2022/04/01 03:23:52;;;;;;;31.80;7.55;;;;;;;13.50;nan;-24193.78;5036880;28;20896;-62
2022/04/01 03:26:20;;;;;;;31.88;6.88;;;;;;;13.60;nan;-24196.59;5032567;28;20179;-60
2022/04/01 03:28:46;;;;;;;35.30;7.40;;;;;;;13.95;nan;-24206.41;5033534;28;20175;-63
2022/04/01 03:31:14;;;;;;;35.92;8.32;;;;;;;13.95;nan;-24206.28;5034805;28;20857;-61
2022/04/01 03:33:41;;;;;;;31.83;7.95;;;;;;;13.91;nan;-24205.16;5031565;28;20208;-62
2022/04/01 03:36:08;;;;;;;40.72;8.32;;;;;;;13.90;nan;-24204.88;5033427;28;20233;-63
2022/04/01 03:38:34;;;;;;;28.02;8.13;;;;;;;13.85;nan;-24203.47;5034323;28;20190;-63
2022/04/01 03:41:01;;;;;;;33.60;8.40;;;;;;;13.92;nan;-24205.56;5033504;28;20174;-63
2022/04/01 03:43:28;;;;;;;30.08;8.55;;;;;;;13.62;nan;-24197.16;5034024;28;20195;-62
2022/04/01 03:45:55;;;;;;;37.00;8.63;;;;;;;13.41;nan;-24191.38;5034960;28;21567;-63
2022/04/01 03:48:24;;;;;;;31.23;8.88;;;;;;;13.89;nan;-24204.72;5035399;28;20233;-63
2022/04/01 03:50:53;;;;;;;28.67;8.70;;;;;;;13.79;nan;-24201.91;5034096;28;20190;-64
2022/04/01 03:53:30;;;;;;;38.95;8.40;;;;;;;13.44;nan;-24192.25;5033808;28;20186;-63
2022/04/01 03:55:59;;;;;;;31.13;8.75;;;;;;;13.68;nan;-24198.97;5033522;28;20214;-65
2022/04/01 03:58:33;;;;;;;32.05;8.63;;;;;;;13.84;nan;-24203.19;5030798;28;20183;-65
2022/04/01 04:01:02;;;;;;;37.65;9.80;;;;;;;13.95;nan;-24206.41;5033223;28;20194;-61
2022/04/01 04:03:29;;;;;;;31.42;8.80;;;;;;;13.44;nan;-24192.25;5032381;28;20203;-61
2022/04/01 04:05:56;;;;;;;39.70;9.75;;;;;;;14.01;nan;-24208.09;5023540;28;20747;-65
2022/04/01 04:08:22;;;;;;;33.67;8.85;;;;;;;13.98;nan;-24207.25;5035271;28;20658;-66
2022/04/01 04:10:49;;;;;;;48.67;10.05;;;;;;;13.64;nan;-24197.84;5032511;28;20171;-63
2022/04/01 04:13:16;;;;;;;42.97;8.70;;;;;;;13.75;nan;-24200.81;5034071;28;20183;-64
2022/04/01 04:15:51;;;;;;;40.40;9.13;;;;;;;14.20;nan;-24213.16;5038235;28;20195;-65
2022/04/01 04:18:19;;;;;;;46.92;8.77;;;;;;;13.79;nan;-24201.91;5037519;28;20186;-61
2022/04/01 04:21:12;;;;;;;41.38;8.88;;;;;;;14.35;nan;-24217.34;5016298;28;20183;-63
2022/04/01 04:23:47;;;;;;;37.53;10.00;;;;;;;14.25;nan;-24214.69;5013657;28;20218;-62
2022/04/01 04:26:19;;;;;;;45.15;9.50;;;;;;;14.19;nan;-24212.88;5037348;28;20243;-64
2022/04/01 04:28:49;;;;;;;47.22;9.55;;;;;;;14.24;nan;-24214.41;5032489;28;20183;-63
2022/04/01 04:31:25;;;;;;;39.33;9.52;;;;;;;14.37;nan;-24217.94;5031927;28;20266;-63
2022/04/01 04:33:55;;;;;;;50.30;9.77;;;;;;;14.36;nan;-24217.66;5032140;28;20229;-62
2022/04/01 04:36:30;;;;;;;40.03;9.63;;;;;;;14.33;nan;-24216.94;5032583;28;20176;-64
2022/04/01 04:38:58;;;;;;;48.05;9.43;;;;;;;14.36;nan;-24217.66;5032274;28;20171;-62
2022/04/01 04:41:24;;;;;;;45.70;8.98;;;;;;;13.87;nan;-24204.16;5031517;28;20240;-62
2022/04/01 04:43:50;;;;;;;42.55;10.38;;;;;;;14.05;nan;-24209.09;5036793;28;20674;-62
2022/04/01 04:46:17;;;;;;;41.80;10.20;;;;;;;14.30;nan;-24215.94;5015228;28;20171;-62
2022/04/01 04:48:44;;;;;;;48.72;9.82;;;;;;;14.02;nan;-24208.25;5031790;28;20167;-64
2022/04/01 04:51:12;;;;;;;46.55;9.75;;;;;;;14.47;nan;-24220.72;5013929;28;20647;-62
2022/04/01 04:53:39;;;;;;;39.75;10.07;;;;;;;14.29;nan;-24215.69;5030474;28;20541;-64
2022/04/01 04:56:07;;;;;;;48.00;10.27;;;;;;;14.69;nan;-24226.75;5031065;28;20186;-63
2022/04/01 04:58:39;;;;;;;40.47;9.85;;;;;;;14.52;nan;-24222.28;5033176;28;20611;-69
2022/04/01 05:01:21;;;;;;;53.28;10.18;;;;;;;14.25;nan;-24214.69;5030883;28;20175;-67
2022/04/01 05:04:10;;;;;;;41.25;9.45;;;;;;;14.37;nan;-24217.94;5031362;28;20205;-69
2022/04/01 05:06:48;;;;;;;42.45;9.80;;;;;;;14.78;nan;-24229.28;5030757;28;20314;-69
2022/04/01 05:09:23;;;;;;;42.25;9.77;;;;;;;14.82;nan;-24230.41;5031381;28;20214;-66
2022/04/01 05:12:30;;;;;;;45.25;10.10;;;;;;;15.14;nan;-24239.22;5031185;28;20159;-68
2022/04/01 05:15:08;;;;;;;47.45;10.35;;;;;;;15.32;nan;-24244.28;4993690;28;20252;-65
2022/04/01 05:17:36;;;;;;;60.20;10.18;;;;;;;15.40;nan;-24246.50;5016464;28;20194;-67
2022/04/01 05:20:11;;;;;;;44.45;9.95;;;;;;;15.36;nan;-24245.38;5028945;28;20278;-68
2022/04/01 05:22:47;;;;;;;66.00;10.38;;;;;;;15.01;nan;-24235.72;5030240;28;20260;-68
2022/04/01 05:25:17;;;;;;;49.05;10.52;;;;;;;15.34;nan;-24244.84;5030560;28;20156;-68
2022/04/01 05:27:48;;;;;;;53.53;9.73;;;;;;;15.14;nan;-24239.22;5030190;28;20266;-68
2022/04/01 05:30:16;;;;;;;50.25;9.55;;;;;;;15.30;nan;-24243.84;5033257;28;20635;-64
2022/04/01 05:32:57;;;;;;;55.17;10.68;;;;;;;15.85;nan;-24259.13;5031332;28;20183;-67
2022/04/01 05:35:26;;;;;;;53.85;11.10;;;;;;;15.78;nan;-24257.16;5011170;28;20168;-65
2022/04/01 05:37:53;;;;;;;45.97;10.38;;;;;;;15.26;nan;-24242.59;5015483;28;20883;-65
2022/04/01 05:40:21;;;;;;;53.03;10.32;;;;;;;15.06;nan;-24237.13;5013053;28;20643;-65
2022/04/01 05:42:48;;;;;;;48.33;10.93;;;;;;;15.31;nan;-24244.13;5030956;28;20164;-65
2022/04/01 05:45:16;;;;;;;56.13;10.85;;;;;;;15.69;nan;-24254.50;5030778;28;20175;-66
2022/04/01 05:47:43;;;;;;;53.70;9.90;;;;;;;15.94;nan;-24261.50;5030373;28;20225;-66
2022/04/01 05:50:09;;;;;;;47.50;10.57;;;;;;;16.15;nan;-24267.22;5032775;28;20191;-67
2022/04/01 05:52:37;;;;;;;48.83;10.48;;;;;;;15.65;nan;-24253.38;5030333;28;20171;-69
2022/04/01 05:55:03;;;;;;;49.63;10.23;;;;;;;14.99;nan;-24235.31;5033580;28;20187;-66
2022/04/01 05:57:29;;;;;;;53.35;10.48;;;;;;;15.14;nan;-24239.38;5034565;28;20176;-65
2022/04/01 05:59:54;;;;;;;60.88;11.77;;;;;;;15.13;nan;-24239.09;5034745;28;20187;-68
2022/04/01 06:02:55;;;;;;;57.60;10.55;;;;;;;15.05;nan;-24236.84;5033988;28;20167;-65
2022/04/01 06:05:44;;;;;;;50.80;10.50;;;;;;;15.60;nan;-24251.97;5034034;28;20270;-68
2022/04/01 06:08:17;;;;;;;47.50;10.68;;;;;;;15.73;nan;-24255.63;5033817;28;20236;-66
2022/04/01 06:10:58;;;;;;;55.92;11.30;;;;;;;15.74;nan;-24256.03;5034231;28;20218;-67
2022/04/01 06:13:42;;;;;;;51.03;11.27;;;;;;;15.69;nan;-24254.50;5033447;28;20174;-69
2022/04/01 06:16:44;;;;;;;53.35;10.50;;;;;;;15.80;nan;-24257.72;5034338;28;20183;-67
2022/04/01 06:19:23;;;;;;;65.20;10.88;;;;;;;16.25;nan;-24270.03;5034722;28;20173;-66
2022/04/01 06:21:53;;;;;;;52.70;11.15;;;;;;;16.46;nan;-24275.88;5033883;28;20167;-67
2022/04/01 06:24:38;;;;;;;45.25;10.88;;;;;;;16.74;nan;-24283.72;5033813;28;20195;-69
2022/04/01 06:27:05;;;;;;;52.30;10.00;;;;;;;16.93;nan;-24288.75;5034468;28;20179;-69
2022/04/01 06:29:43;;;;;;;46.47;9.73;;;;;;;17.03;nan;-24291.69;5034254;28;20202;-69
2022/04/01 06:32:13;;;;;;;65.10;11.43;;;;;;;17.45;nan;-24303.28;5033859;28;20262;-69
2022/04/01 06:35:04;;;;;;;53.30;10.27;;;;;;;18.16;nan;-24322.66;5034188;28;20163;-68
2022/04/01 06:37:41;;;;;;;46.30;9.70;;;;;;;18.15;nan;-24322.53;5022613;28;20207;-67
2022/04/01 06:40:10;;;;;;;50.95;10.38;;;;;;;18.71;nan;-24338.00;5034373;28;20175;-67
2022/04/01 06:42:37;;;;;;;52.35;11.13;;;;;;;18.42;nan;-24329.91;5033267;28;20655;-66
2022/04/01 06:45:15;;;;;;;49.05;10.88;;;;;;;18.02;nan;-24318.91;5034063;28;20199;-68
2022/04/01 06:47:41;;;;;;;50.00;10.65;;;;;;;18.06;nan;-24320.00;5034088;28;20623;-67
2022/04/01 06:50:07;;;;;;;47.05;10.93;;;;;;;17.45;nan;-24303.28;5033756;28;20242;-68
2022/04/01 06:52:33;;;;;;;48.13;10.18;;;;;;;18.29;nan;-24326.41;5033803;28;20171;-66
2022/04/01 06:54:59;;;;;;;52.20;9.98;;;;;;;18.35;nan;-24327.94;5033424;28;20213;-68
2022/04/01 06:57:24;;;;;;;58.15;10.32;;;;;;;17.81;nan;-24313.19;5033579;28;20198;-67
2022/04/01 06:59:50;;;;;;;53.05;10.65;;;;;;;18.17;nan;-24322.94;5033483;28;20177;-67
2022/04/01 07:02:16;;;;;;;49.97;10.77;;;;;;;18.48;nan;-24331.72;5033376;28;20206;-69
2022/04/01 07:04:42;;;;;;;45.72;10.65;;;;;;;18.28;nan;-24326.13;5032788;28;20195;-66
2022/04/01 07:07:08;;;;;;;48.58;9.82;;;;;;;18.76;nan;-24339.25;5032478;28;20219;-67
2022/04/01 07:09:35;;;;;;;44.25;10.32;;;;;;;18.26;nan;-24325.59;5032738;28;20705;-69
2022/04/01 07:12:01;;;;;;;45.08;10.52;;;;;;;18.17;nan;-24323.06;5032955;28;20206;-69
2022/04/01 07:14:28;;;;;;;52.20;9.73;;;;;;;18.41;nan;-24329.75;5033668;28;20180;-68
2022/04/01 07:16:56;;;;;;;46.53;9.98;;;;;;;18.58;nan;-24334.38;5033133;28;20175;-68
2022/04/01 07:19:22;;;;;;;48.70;10.07;;;;;;;18.64;nan;-24335.91;5033370;28;20266;-69
2022/04/01 07:21:47;;;;;;;65.30;11.60;;;;;;;18.36;nan;-24328.22;5033024;28;20258;-69
2022/04/01 07:24:13;;;;;;;53.15;10.23;;;;;;;18.38;nan;-24328.78;5032600;28;20253;-66
2022/04/01 07:26:38;;;;;;;54.60;11.25;;;;;;;18.75;nan;-24339.09;5033046;28;20639;-68
2022/04/01 07:29:04;;;;;;;55.10;11.13;;;;;;;19.00;nan;-24345.91;5032568;28;20262;-69
2022/04/01 07:34:21;;;;;;;51.30;10.27;;;;;;;19.38;nan;-24356.50;5032304;28;20178;-66
2022/04/01 07:36:47;;;;;;;54.63;11.05;;;;;;;19.78;nan;-24367.34;5032700;28;20192;-66
2022/04/01 07:39:13;;;;;;;74.78;10.95;;;;;;;19.70;nan;-24365.13;5032558;28;20170;-69
2022/04/01 07:41:39;;;;;;;60.25;11.52;;;;;;;19.57;nan;-24361.50;5032734;28;20171;-68
2022/04/01 07:44:05;;;;;;;62.75;11.27;;;;;;;19.97;nan;-24372.63;5034854;28;20203;-68
2022/04/01 07:46:30;;;;;;;54.10;10.48;;;;;;;19.67;nan;-24364.28;5032555;28;20171;-67
2022/04/01 07:48:56;;;;;;;47.88;10.13;;;;;;;20.19;nan;-24378.75;5032379;28;20249;-67
2022/04/01 07:51:21;;;;;;;54.47;11.23;;;;;;;19.93;nan;-24371.38;5031827;28;20588;-66
2022/04/01 07:53:47;;;;;;;62.10;11.10;;;;;;;19.89;nan;-24370.25;5032170;28;20171;-67
2022/04/01 07:56:12;;;;;;;53.47;10.80;;;;;;;20.21;nan;-24379.28;5032114;28;20176;-69
2022/04/01 07:58:38;;;;;;;64.20;10.85;;;;;;;19.98;nan;-24372.91;5031597;28;20171;-68
2022/04/01 08:01:03;;;;;;;42.47;9.95;;;;;;;20.40;nan;-24384.44;5032156;28;20639;-66
2022/04/01 08:03:29;;;;;;;43.72;10.15;;;;;;;20.28;nan;-24381.22;5031644;28;20198;-67
2022/04/01 08:05:54;;;;;;;57.72;10.52;;;;;;;20.38;nan;-24383.75;5033590;28;20223;-68
2022/04/01 08:08:20;;;;;;;48.63;9.88;;;;;;;20.37;nan;-24383.47;5034339;28;20266;-68
2022/04/01 08:10:46;;;;;;;57.78;10.80;;;;;;;20.66;nan;-24391.50;5032035;28;20225;-68
2022/04/01 08:13:12;;;;;;;61.88;10.50;;;;;;;20.79;nan;-24394.97;5033089;28;20198;-68
2022/04/01 08:15:37;;;;;;;62.72;10.95;;;;;;;20.88;nan;-24397.63;5034161;28;20214;-67
2022/04/01 08:18:03;;;;;;;73.95;11.70;;;;;;;21.31;nan;-24409.41;5037895;28;20187;-68
2022/04/01 08:20:28;;;;;;;61.17;11.05;;;;;;;21.67;nan;-24419.09;5023466;28;20195;-70
2022/04/01 08:22:54;;;;;;;54.20;11.38;;;;;;;21.57;nan;-24416.47;5024271;28;20167;-67
2022/04/01 08:25:20;;;;;;;49.85;11.48;;;;;;;21.54;nan;-24415.78;5031889;28;20179;-68
2022/04/01 08:27:45;;;;;;;60.42;11.00;;;;;;;21.74;nan;-24421.19;5038707;28;20195;-68
2022/04/01 08:30:11;;;;;;;66.05;11.57;;;;;;;21.67;nan;-24419.25;5017073;28;20514;-70
2022/04/01 08:32:37;;;;;;;57.17;11.40;;;;;;;21.34;nan;-24410.09;5033910;28;20210;-70
2022/04/01 08:35:05;;;;;;;67.95;12.10;;;;;;;21.37;nan;-24410.94;5033536;28;20221;-69
2022/04/01 08:37:32;;;;;;;63.65;11.75;;;;;;;21.15;nan;-24404.97;5031787;28;20175;-72
2022/04/01 08:39:58;;;;;;;67.70;10.77;;;;;;;21.62;nan;-24417.72;5031876;28;20305;-70
2022/04/01 08:42:24;;;;;;;62.38;11.05;;;;;;;21.63;nan;-24418.13;5031409;28;20571;-69
2022/04/01 08:44:51;;;;;;;71.10;12.20;;;;;;;21.59;nan;-24417.16;5031231;28;20682;-69
2022/04/01 08:47:16;;;;;;;69.70;11.43;;;;;;;21.78;nan;-24422.28;5034197;28;20583;-72
2022/04/01 08:49:42;;;;;;;68.90;12.27;;;;;;;21.93;nan;-24426.44;5041001;28;20193;-69
2022/04/01 08:52:07;;;;;;;63.08;12.23;;;;;;;21.63;nan;-24418.00;5018754;28;20168;-68
2022/04/01 08:54:34;;;;;;;66.90;11.55;;;;;;;21.90;nan;-24425.63;5026862;28;20190;-71
2022/04/01 08:57:01;;;;;;;74.72;12.75;;;;;;;21.97;nan;-24427.56;5031327;28;20175;-72
2022/04/01 08:59:30;;;;;;;79.68;12.23;;;;;;;22.34;nan;-24437.53;5031417;28;20317;-70
2022/04/01 09:02:07;;;;;;;74.47;12.57;;;;;;;22.39;nan;-24438.91;5031505;28;20222;-70
2022/04/01 09:04:32;;;;;;;72.35;11.77;;;;;;;22.71;nan;-24447.75;5031123;28;20696;-68
2022/04/01 09:07:12;;;;;;;67.20;11.57;;;;;;;23.01;nan;-24455.91;5031301;28;20226;-68
2022/04/01 09:09:38;;;;;;;68.45;12.18;;;;;;;23.10;nan;-24458.25;5031524;28;20237;-69
2022/04/01 09:12:16;;;;;;;77.32;13.27;;;;;;;23.78;nan;-24476.91;5033653;28;20191;-71
2022/04/01 09:14:51;;;;;;;71.32;13.30;;;;;;;23.82;nan;-24477.88;5031393;28;20590;-70
2022/04/01 09:17:17;;;;;;;73.20;12.63;;;;;;;24.26;nan;-24490.03;5031301;28;20175;-69
2022/04/01 09:19:43;;;;;;;72.07;12.57;;;;;;;24.18;nan;-24487.81;5031325;28;20183;-71
2022/04/01 09:22:23;;;;;;;89.07;13.55;;;;;;;24.28;nan;-24490.56;5012790;28;20185;-68
2022/04/01 09:25:02;;;;;;;64.63;13.13;;;;;;;23.90;nan;-24480.09;5014701;28;20218;-72
2022/04/01 09:27:49;;;;;;;71.38;11.95;;;;;;;24.20;nan;-24488.50;5031893;28;20182;-71
2022/04/01 09:30:17;;;;;;;76.78;13.70;;;;;;;24.33;nan;-24491.81;5031217;28;20174;-72
2022/04/01 09:32:46;;;;;;;76.75;13.32;;;;;;;24.40;nan;-24493.88;5031128;28;20571;-70
2022/04/01 09:35:13;;;;;;;67.35;12.65;;;;;;;24.08;nan;-24485.19;5031287;28;20228;-70
2022/04/01 09:37:41;;;;;;;71.90;12.38;;;;;;;23.99;nan;-24482.56;5031013;28;20546;-70
2022/04/01 09:40:09;;;;;;;70.95;12.65;;;;;;;24.27;nan;-24490.28;5034704;28;20183;-72
2022/04/01 09:42:36;;;;;;;67.55;12.48;;;;;;;23.96;nan;-24481.88;5015193;28;20275;-72
2022/04/01 09:45:03;;;;;;;75.32;13.35;;;;;;;24.17;nan;-24487.53;5031064;28;20203;-74
2022/04/01 09:47:35;;;;;;;67.93;13.10;;;;;;;23.90;nan;-24480.09;5030851;28;20264;-74
2022/04/01 09:50:04;;;;;;;67.43;12.60;;;;;;;24.06;nan;-24484.63;5031815;28;20180;-74
2022/04/01 09:52:34;;;;;;;82.28;12.77;;;;;;;24.15;nan;-24486.97;5031075;28;20556;-75
2022/04/01 09:55:00;;;;;;;78.13;13.10;;;;;;;24.44;nan;-24494.84;5031041;28;20168;-75
2022/04/01 09:57:26;;;;;;;81.65;12.90;;;;;;;24.29;nan;-24490.72;5013139;28;20587;-71
2022/04/01 09:59:53;;;;;;;66.95;12.52;;;;;;;24.71;nan;-24502.16;5033094;28;20278;-73
2022/04/01 10:02:20;;;;;;;54.22;12.77;;;;;;;24.47;nan;-24495.81;5034567;28;20214;-73
2022/04/01 10:04:46;;;;;;;92.05;14.27;;;;;;;24.46;nan;-24495.53;5031061;28;20203;-75
2022/04/01 10:07:11;;;;;;;69.63;12.35;;;;;;;24.74;nan;-24502.97;5030828;28;20233;-72
2022/04/01 10:09:37;;;;;;;73.28;13.05;;;;;;;24.87;nan;-24506.69;5030892;28;20184;-74
2022/04/01 10:12:08;;;;;;;66.53;12.68;;;;;;;25.15;nan;-24514.28;5030846;28;20180;-75
2022/04/01 10:14:35;;;;;;;65.63;12.57;;;;;;;24.61;nan;-24499.66;5031215;28;20207;-72
2022/04/01 10:17:03;;;;;;;79.95;13.23;;;;;;;24.62;nan;-24499.94;5036860;28;20299;-71
2022/04/01 10:19:32;;;;;;;81.82;14.05;;;;;;;24.84;nan;-24505.88;5028901;28;20718;-71
2022/04/01 10:21:59;;;;;;;66.40;13.20;;;;;;;24.52;nan;-24497.19;5035657;28;20186;-73
2022/04/01 10:24:47;;;;;;;90.85;13.93;;;;;;;24.64;nan;-24500.50;5029798;28;20222;-73
2022/04/01 10:27:13;;;;;;;67.80;13.45;;;;;;;24.72;nan;-24502.41;5030910;28;20179;-70
2022/04/01 10:29:39;;;;;;;94.88;13.38;;;;;;;24.98;nan;-24509.72;5012358;28;20188;-71
2022/04/01 10:32:40;;;;;;;81.28;12.95;;;;;;;25.61;nan;-24526.66;5030266;28;20172;-70
2022/04/01 10:35:08;;;;;;;79.15;13.02;;;;;;;25.17;nan;-24514.81;5030206;28;20180;-70
2022/04/01 10:37:35;;;;;;;78.63;12.90;;;;;;;25.23;nan;-24516.34;5030655;28;20183;-70
2022/04/01 10:40:07;;;;;;;75.10;12.90;;;;;;;25.54;nan;-24524.88;5013489;28;20200;-71
2022/04/01 10:42:38;;;;;;;79.80;13.07;;;;;;;25.98;nan;-24536.69;5033994;28;20175;-68
2022/04/01 10:45:13;;;;;;;81.78;11.68;;;;;;;26.35;nan;-24546.84;5033729;28;20203;-67
2022/04/01 10:51:36;;;;;;;84.32;12.73;;;;;;;26.33;nan;-24546.31;5034107;28;20243;-71
2022/04/01 10:53:37;;;;;;;71.53;12.70;;;;;;;26.43;nan;-24548.91;5031475;28;20245;-68
2022/04/01 10:56:24;;;;;;;78.50;12.60;;;;;;;26.08;nan;-24539.44;5025905;28;20202;-69
2022/04/01 10:59:13;;;;;;;64.45;11.52;;;;;;;25.62;nan;-24526.94;5033438;28;20613;-70
2022/04/01 11:01:52;;;;;;;80.18;12.80;;;;;;;25.60;nan;-24526.50;5030991;28;20571;-70
2022/04/01 11:04:17;;;;;;;56.33;10.60;;;;;;;25.61;nan;-24526.66;5038170;28;20206;-68
2022/04/01 11:07:01;;;;;;;61.70;11.00;;;;;;;25.11;nan;-24513.03;5015835;28;20219;-71
2022/04/01 11:09:37;;;;;;;66.90;11.15;;;;;;;25.49;nan;-24523.47;5011997;28;20168;-69
2022/04/01 11:12:14;;;;;;;61.20;11.55;;;;;;;25.46;nan;-24522.66;5022244;28;20190;-69
2022/04/01 11:17:25;;;;;;;63.78;11.43;;;;;;;25.03;nan;-24510.97;5033579;28;20284;-69
2022/04/01 11:20:09;;;;;;;68.53;11.35;;;;;;;25.36;nan;-24520.03;5031221;28;20180;-69
2022/04/01 11:22:40;;;;;;;64.82;11.57;;;;;;;25.33;nan;-24519.09;5023484;28;20198;-69
2022/04/01 11:25:11;;;;;;;78.97;10.80;;;;;;;24.96;nan;-24509.03;5033185;28;20191;-67
2022/04/01 11:27:48;;;;;;;56.03;10.77;;;;;;;25.07;nan;-24512.06;5033260;28;20721;-70
2022/04/01 11:30:16;;;;;;;63.35;10.38;;;;;;;24.51;nan;-24496.91;5033025;28;20171;-67
2022/04/01 11:32:45;;;;;;;71.22;10.90;;;;;;;24.43;nan;-24494.69;5033115;28;20351;-69
2022/04/01 11:35:12;;;;;;;57.00;9.43;;;;;;;24.34;nan;-24492.22;5032906;28;20175;-70
2022/04/01 11:37:45;;;;;;;72.85;11.23;;;;;;;23.91;nan;-24480.34;5033022;28;20171;-70
2022/04/01 11:40:14;;;;;;;70.30;11.60;;;;;;;24.20;nan;-24488.38;5033162;28;20187;-70
2022/04/01 11:42:52;;;;;;;73.38;10.77;;;;;;;24.11;nan;-24485.88;5035137;28;20631;-66
2022/04/01 11:45:19;;;;;;;57.03;10.70;;;;;;;23.99;nan;-24482.72;5015326;28;20543;-70
2022/04/01 11:47:45;;;;;;;60.58;10.25;;;;;;;23.78;nan;-24477.03;5032666;28;20174;-70
2022/04/01 11:50:13;;;;;;;63.42;10.48;;;;;;;23.87;nan;-24479.38;5032951;28;20259;-67
2022/04/01 11:52:43;;;;;;;59.88;10.35;;;;;;;23.80;nan;-24477.31;5038278;28;20270;-67